• Join FlightAware (Why Join?)
  • Login
  • US Flag 
02:08PM EDT


 

Airport Tracker/Info


-or-


 

Live Flight TrackerFlight Track Log ✈ N4086E ✈ 15-Sep-2013 ✈ KOKV - KFOK

Flight Track Log - Related Links

Times and Time Zones

All times are in EDT time to prevent confusion due to time zone crossing. See the N4086E flight status page for this flight to view local times or setup timezone preferences in your user account.

Time Position Orientation Groundspeed Altitude Reporting Facility
EDT Latitude Longitude Course Direction KTS MPH feet Rate Location/Type
06:23PM 39.2000 -77.9500 67° East 144 166 4,100  Level Potomac TRACON
06:24PM 39.2167 -77.9000 67° East 152 175 4,700 600 Climbing Potomac TRACON
06:25PM 39.2333 -77.8500 67° East 155 178 5,400 600 Climbing Potomac TRACON
06:26PM 39.2500 -77.8000 67° East 160 184 6,000 540 Climbing Potomac TRACON
06:27PM 39.2667 -77.7667 57° Northeast 164 189 6,600 600 Climbing Potomac TRACON
06:28PM 39.2833 -77.7000 72° East 166 191 7,300 600 Climbing Potomac TRACON
06:29PM 39.3000 -77.6500 67° East 165 190 7,900 600 Climbing Potomac TRACON
06:30PM 39.3333 -77.6000 49° Northeast 171 197 8,500 540 Climbing Potomac TRACON
06:31PM 39.3500 -77.5333 72° East 176 203 9,000 480 Climbing Potomac TRACON
06:32PM 39.3667 -77.4833 67° East 183 211 9,500 300 Climbing Potomac TRACON
06:33PM 39.4000 -77.4167 57° Northeast 197 227 9,600  Climbing Potomac TRACON
06:34PM 39.4167 -77.3333 75° East 209 241 9,600  Level Potomac TRACON
06:35PM 39.4333 -77.2667 72° East 208 239 9,600  Level Potomac TRACON
06:36PM 39.4667 -77.2000 57° Northeast 210 242 9,600  Level Potomac TRACON
06:37PM 39.4833 -77.1333 72° East 209 241 9,600  Level Potomac TRACON
06:38PM 39.5167 -77.0667 57° Northeast 209 241 9,600  Level Potomac TRACON
06:39PM 39.5333 -77.0000 72° East 207 238 9,600  Level Potomac TRACON
06:40PM 39.5500 -76.9333 72° East 208 239 9,600  Level Potomac TRACON
06:41PM 39.5833 -76.8667 57° Northeast 206 237 9,600 -60 Level Potomac TRACON
06:43PM 39.6225 -76.7411 68° East 226 260 9,500 -60 Descending New York Center
06:44PM 39.6447 -76.6700 68° East 211 243 9,500  Level New York Center
06:45PM 39.6669 -76.6019 67° East 205 236 9,500  Level New York Center
06:46PM 39.6889 -76.5417 65° Northeast 205 236 9,500  Level New York Center
06:47PM 39.7131 -76.4681 67° East 205 236 9,500  Level New York Center
06:48PM 39.7328 -76.4047 68° East 205 236 9,500  Level New York Center
06:49PM 39.7594 -76.3314 65° Northeast 205 236 9,500  Level New York Center
06:50PM 39.7808 -76.2708 65° Northeast 205 236 9,500  Level New York Center
06:51PM 39.8072 -76.1972 65° Northeast 205 236 9,600  Climbing New York Center
06:52PM 39.8294 -76.1258 68° East 210 242 9,600  Level New York Center
06:53PM 39.8508 -76.0653 65° Northeast 205 236 9,600  Level New York Center
06:54PM 39.8728 -75.9967 67° East 205 236 9,600  Level New York Center
06:55PM 39.8944 -75.9281 68° East 205 236 9,600  Level New York Center
06:56PM 39.9164 -75.8539 69° East 205 236 9,600  Level New York Center
06:57PM 39.9336 -75.7928 70° East 205 236 9,600  Level New York Center
06:58PM 39.9578 -75.7158 68° East 205 236 9,600  Level New York Center
06:59PM 39.9750 -75.6547 70° East 210 242 9,600  Level New York Center
07:00PM 39.9969 -75.5750 70° East 210 242 9,600  Level New York Center
07:01PM 40.0161 -75.5142 68° East 210 242 9,600  Level New York Center
07:02PM 40.0381 -75.4342 70° East 204 235 9,600  Level New York Center
07:03PM 40.0575 -75.3650 70° East 204 235 9,600  Level New York Center
07:03PM 40.0667 -75.3167 76° East 208 239 9,600  Level Philadelphia TRACON
07:04PM 40.1000 -75.2500 57° Northeast 208 239 9,600  Level Philadelphia TRACON
07:05PM 40.1167 -75.1833 72° East 209 241 9,600  Level Philadelphia TRACON
07:06PM 40.1333 -75.1167 72° East 205 236 9,600  Level Philadelphia TRACON
07:07PM 40.1500 -75.0500 72° East 207 238 9,600  Level Philadelphia TRACON
07:08PM 40.1667 -74.9833 72° East 206 237 9,600 -60 Level Philadelphia TRACON
07:15PM 40.3053 -74.5389 72° East 208 239 9,400 -60 Descending FlightAware ADS-B
07:15PM 40.3232 -74.4775 69° East 208 239 9,400  Level FlightAware ADS-B
07:15PM 40.3295 -74.4577 67° East 208 239 9,400  Level FlightAware ADS-B
07:17PM 40.3570 -74.3680 68° East 207 238 9,400  Level FlightAware ADS-B
07:17PM 40.3633 -74.3461 69° East 206 237 9,400  Level FlightAware ADS-B
07:17PM 40.3685 -74.3280 69° East 207 238 9,400 240 Level FlightAware ADS-B
07:18PM 40.3833 -74.3000 69° East 205 236 9,600 120 Climbing New York TRACON
07:19PM 40.4000 -74.2333 72° East 207 238 9,600  Level New York TRACON
07:20PM 40.4167 -74.1500 75° East 208 239 9,600 -240 Level New York TRACON
07:21PM 40.4500 -74.0833 57° Northeast 219 252 9,200 -540 Descending New York TRACON
07:22PM 40.4667 -74.0000 75° East 232 267 8,600 -600 Descending New York TRACON
07:28PM 40.5882 -73.5636 75° East 215 247 5,400 -480 Descending FlightAware ADS-B
07:29PM 40.6167 -73.4667 75° East 197 227 5,500  Climbing New York TRACON
07:30PM 40.6333 -73.4000 72° East 192 221 5,500 -120 Level New York TRACON
07:31PM 40.6500 -73.3333 72° East 200 230 5,300 -420 Descending New York TRACON
07:32PM 40.6667 -73.2500 75° East 211 243 4,700 -600 Descending New York TRACON
07:33PM 40.6833 -73.1833 72° East 207 238 4,100 -600 Descending New York TRACON
07:34PM 40.7000 -73.1167 72° East 208 239 3,500 -600 Descending New York TRACON
07:35PM 40.7167 -73.0500 72° East 196 226 3,000 -600 Descending New York TRACON
07:36PM 40.7333 -72.9833 72° East 195 224 2,400 -540 Descending New York TRACON
07:37PM 40.7500 -72.9167 72° East 196 226 2,000 -420 Descending New York TRACON